sensor_id;sensor_type;location;lat;lon;timestamp;P1;durP1;ratioP1;P2;durP2;ratioP2
17991;SDS011;9121;50.926;5.340;2023-07-30T00:01:38;9.00;;;2.88;;
17991;SDS011;9121;50.926;5.340;2023-07-30T00:04:05;10.48;;;2.83;;
17991;SDS011;9121;50.926;5.340;2023-07-30T00:06:32;7.35;;;2.92;;
17991;SDS011;9121;50.926;5.340;2023-07-30T00:08:59;14.07;;;2.95;;
17991;SDS011;9121;50.926;5.340;2023-07-30T00:11:27;8.93;;;2.83;;
17991;SDS011;9121;50.926;5.340;2023-07-30T00:13:54;7.75;;;3.05;;
17991;SDS011;9121;50.926;5.340;2023-07-30T00:16:21;8.20;;;2.90;;
17991;SDS011;9121;50.926;5.340;2023-07-30T00:18:49;9.43;;;3.10;;
17991;SDS011;9121;50.926;5.340;2023-07-30T00:21:16;12.85;;;2.90;;
17991;SDS011;9121;50.926;5.340;2023-07-30T00:23:43;11.27;;;2.97;;
17991;SDS011;9121;50.926;5.340;2023-07-30T00:26:10;9.27;;;3.38;;
17991;SDS011;9121;50.926;5.340;2023-07-30T00:28:38;8.85;;;2.80;;
17991;SDS011;9121;50.926;5.340;2023-07-30T00:31:05;8.38;;;3.00;;
17991;SDS011;9121;50.926;5.340;2023-07-30T00:33:32;6.78;;;3.13;;
17991;SDS011;9121;50.926;5.340;2023-07-30T00:35:58;8.38;;;2.55;;
17991;SDS011;9121;50.926;5.340;2023-07-30T00:38:25;6.65;;;2.50;;
17991;SDS011;9121;50.926;5.340;2023-07-30T00:40:52;9.10;;;3.33;;
17991;SDS011;9121;50.926;5.340;2023-07-30T00:43:20;6.28;;;2.67;;
17991;SDS011;9121;50.926;5.340;2023-07-30T00:45:49;8.88;;;3.17;;
17991;SDS011;9121;50.926;5.340;2023-07-30T00:48:16;10.13;;;2.95;;
17991;SDS011;9121;50.926;5.340;2023-07-30T00:50:43;13.50;;;3.42;;
17991;SDS011;9121;50.926;5.340;2023-07-30T00:53:11;11.18;;;2.85;;
17991;SDS011;9121;50.926;5.340;2023-07-30T00:55:41;8.52;;;3.20;;
17991;SDS011;9121;50.926;5.340;2023-07-30T00:58:08;6.63;;;2.90;;
17991;SDS011;9121;50.926;5.340;2023-07-30T01:00:36;11.43;;;2.60;;
17991;SDS011;9121;50.926;5.340;2023-07-30T01:03:05;11.00;;;3.10;;
17991;SDS011;9121;50.926;5.340;2023-07-30T01:05:32;14.23;;;3.55;;
17991;SDS011;9121;50.926;5.340;2023-07-30T01:07:59;8.75;;;3.47;;
17991;SDS011;9121;50.926;5.340;2023-07-30T01:10:27;7.03;;;2.97;;
17991;SDS011;9121;50.926;5.340;2023-07-30T01:12:56;13.73;;;3.40;;
17991;SDS011;9121;50.926;5.340;2023-07-30T01:15:24;8.00;;;2.90;;
17991;SDS011;9121;50.926;5.340;2023-07-30T01:17:51;8.73;;;3.47;;
17991;SDS011;9121;50.926;5.340;2023-07-30T01:20:21;6.30;;;3.17;;
17991;SDS011;9121;50.926;5.340;2023-07-30T01:22:50;8.48;;;2.90;;
17991;SDS011;9121;50.926;5.340;2023-07-30T01:25:17;10.05;;;3.88;;
17991;SDS011;9121;50.926;5.340;2023-07-30T01:27:48;11.13;;;3.67;;
17991;SDS011;9121;50.926;5.340;2023-07-30T01:30:20;12.50;;;3.75;;
17991;SDS011;9121;50.926;5.340;2023-07-30T01:32:49;13.90;;;3.65;;
17991;SDS011;9121;50.926;5.340;2023-07-30T01:35:18;8.13;;;3.40;;
17991;SDS011;9121;50.926;5.340;2023-07-30T01:37:47;10.18;;;3.40;;
17991;SDS011;9121;50.926;5.340;2023-07-30T01:40:17;12.27;;;3.50;;
17991;SDS011;9121;50.926;5.340;2023-07-30T01:42:44;10.15;;;3.25;;
17991;SDS011;9121;50.926;5.340;2023-07-30T01:45:11;13.50;;;3.33;;
17991;SDS011;9121;50.926;5.340;2023-07-30T01:47:38;12.00;;;2.90;;
17991;SDS011;9121;50.926;5.340;2023-07-30T01:50:06;15.23;;;3.05;;
17991;SDS011;9121;50.926;5.340;2023-07-30T01:52:33;14.55;;;3.38;;
17991;SDS011;9121;50.926;5.340;2023-07-30T01:55:01;9.43;;;3.50;;
17991;SDS011;9121;50.926;5.340;2023-07-30T01:57:29;17.58;;;3.80;;
17991;SDS011;9121;50.926;5.340;2023-07-30T01:59:56;18.80;;;3.00;;
17991;SDS011;9121;50.926;5.340;2023-07-30T02:02:23;10.00;;;2.85;;
17991;SDS011;9121;50.926;5.340;2023-07-30T02:04:49;12.02;;;3.10;;
17991;SDS011;9121;50.926;5.340;2023-07-30T02:07:16;8.40;;;3.10;;
17991;SDS011;9121;50.926;5.340;2023-07-30T02:09:43;13.32;;;3.25;;
17991;SDS011;9121;50.926;5.340;2023-07-30T02:12:12;12.48;;;3.03;;
17991;SDS011;9121;50.926;5.340;2023-07-30T02:14:39;13.60;;;3.33;;
17991;SDS011;9121;50.926;5.340;2023-07-30T02:17:06;14.55;;;3.78;;
17991;SDS011;9121;50.926;5.340;2023-07-30T02:19:33;12.60;;;3.63;;
17991;SDS011;9121;50.926;5.340;2023-07-30T02:22:00;10.10;;;3.40;;
17991;SDS011;9121;50.926;5.340;2023-07-30T02:24:27;9.80;;;3.30;;
17991;SDS011;9121;50.926;5.340;2023-07-30T02:26:54;16.20;;;3.92;;
17991;SDS011;9121;50.926;5.340;2023-07-30T02:29:22;11.68;;;2.97;;
17991;SDS011;9121;50.926;5.340;2023-07-30T02:31:49;12.68;;;3.25;;
17991;SDS011;9121;50.926;5.340;2023-07-30T02:34:16;11.52;;;3.20;;
17991;SDS011;9121;50.926;5.340;2023-07-30T02:36:43;15.88;;;3.53;;
17991;SDS011;9121;50.926;5.340;2023-07-30T02:39:10;10.23;;;3.17;;
17991;SDS011;9121;50.926;5.340;2023-07-30T02:41:37;16.15;;;3.63;;
17991;SDS011;9121;50.926;5.340;2023-07-30T02:44:04;15.60;;;3.47;;
17991;SDS011;9121;50.926;5.340;2023-07-30T02:46:32;11.35;;;3.17;;
17991;SDS011;9121;50.926;5.340;2023-07-30T02:48:59;9.27;;;2.92;;
17991;SDS011;9121;50.926;5.340;2023-07-30T02:51:26;14.23;;;2.97;;
17991;SDS011;9121;50.926;5.340;2023-07-30T02:53:54;7.57;;;3.00;;
17991;SDS011;9121;50.926;5.340;2023-07-30T02:56:24;9.05;;;2.47;;
17991;SDS011;9121;50.926;5.340;2023-07-30T02:58:51;14.68;;;2.65;;
17991;SDS011;9121;50.926;5.340;2023-07-30T03:01:18;12.40;;;2.90;;
17991;SDS011;9121;50.926;5.340;2023-07-30T03:03:46;11.40;;;2.38;;
17991;SDS011;9121;50.926;5.340;2023-07-30T03:06:13;9.63;;;2.40;;
17991;SDS011;9121;50.926;5.340;2023-07-30T03:08:42;11.20;;;2.30;;
17991;SDS011;9121;50.926;5.340;2023-07-30T03:11:09;14.93;;;2.30;;
17991;SDS011;9121;50.926;5.340;2023-07-30T03:13:36;15.18;;;2.78;;
17991;SDS011;9121;50.926;5.340;2023-07-30T03:16:03;10.43;;;2.72;;
17991;SDS011;9121;50.926;5.340;2023-07-30T03:18:30;8.27;;;2.50;;
17991;SDS011;9121;50.926;5.340;2023-07-30T03:20:59;13.73;;;2.88;;
17991;SDS011;9121;50.926;5.340;2023-07-30T03:23:26;7.25;;;2.60;;
17991;SDS011;9121;50.926;5.340;2023-07-30T03:25:53;9.15;;;2.47;;
17991;SDS011;9121;50.926;5.340;2023-07-30T03:28:20;12.90;;;2.60;;
17991;SDS011;9121;50.926;5.340;2023-07-30T03:30:47;8.63;;;2.50;;
17991;SDS011;9121;50.926;5.340;2023-07-30T03:33:14;8.50;;;2.45;;
17991;SDS011;9121;50.926;5.340;2023-07-30T03:35:42;6.60;;;1.90;;
17991;SDS011;9121;50.926;5.340;2023-07-30T03:38:10;12.73;;;2.30;;
17991;SDS011;9121;50.926;5.340;2023-07-30T03:40:37;8.05;;;2.92;;
17991;SDS011;9121;50.926;5.340;2023-07-30T03:43:04;12.85;;;3.20;;
17991;SDS011;9121;50.926;5.340;2023-07-30T03:45:31;15.80;;;2.42;;
17991;SDS011;9121;50.926;5.340;2023-07-30T03:47:58;8.25;;;1.85;;
17991;SDS011;9121;50.926;5.340;2023-07-30T03:50:25;9.93;;;2.40;;
17991;SDS011;9121;50.926;5.340;2023-07-30T03:52:52;13.00;;;2.35;;
17991;SDS011;9121;50.926;5.340;2023-07-30T03:55:21;9.80;;;2.20;;
17991;SDS011;9121;50.926;5.340;2023-07-30T03:57:47;11.73;;;1.98;;
17991;SDS011;9121;50.926;5.340;2023-07-30T04:00:14;13.13;;;1.80;;
17991;SDS011;9121;50.926;5.340;2023-07-30T04:02:41;5.60;;;1.95;;
17991;SDS011;9121;50.926;5.340;2023-07-30T04:05:08;7.80;;;2.00;;
17991;SDS011;9121;50.926;5.340;2023-07-30T04:07:35;6.40;;;1.90;;
17991;SDS011;9121;50.926;5.340;2023-07-30T04:10:02;7.70;;;1.63;;
17991;SDS011;9121;50.926;5.340;2023-07-30T04:12:31;8.85;;;1.90;;
17991;SDS011;9121;50.926;5.340;2023-07-30T04:14:58;4.60;;;1.80;;
17991;SDS011;9121;50.926;5.340;2023-07-30T04:17:25;5.80;;;1.60;;
17991;SDS011;9121;50.926;5.340;2023-07-30T04:19:52;7.65;;;1.90;;
17991;SDS011;9121;50.926;5.340;2023-07-30T04:22:19;6.20;;;1.60;;
17991;SDS011;9121;50.926;5.340;2023-07-30T04:24:46;5.25;;;1.55;;
17991;SDS011;9121;50.926;5.340;2023-07-30T04:27:13;7.55;;;1.95;;
17991;SDS011;9121;50.926;5.340;2023-07-30T04:29:41;6.95;;;1.48;;
17991;SDS011;9121;50.926;5.340;2023-07-30T04:32:08;5.45;;;1.63;;
17991;SDS011;9121;50.926;5.340;2023-07-30T04:34:35;10.85;;;1.95;;
17991;SDS011;9121;50.926;5.340;2023-07-30T04:37:02;9.88;;;1.80;;
17991;SDS011;9121;50.926;5.340;2023-07-30T04:39:29;6.32;;;1.77;;
17991;SDS011;9121;50.926;5.340;2023-07-30T04:41:58;6.07;;;1.73;;
17991;SDS011;9121;50.926;5.340;2023-07-30T04:44:25;7.72;;;1.88;;
17991;SDS011;9121;50.926;5.340;2023-07-30T04:46:53;7.80;;;1.70;;
17991;SDS011;9121;50.926;5.340;2023-07-30T04:49:20;9.52;;;1.98;;
17991;SDS011;9121;50.926;5.340;2023-07-30T04:51:47;8.00;;;1.90;;
17991;SDS011;9121;50.926;5.340;2023-07-30T04:54:14;5.80;;;2.03;;
17991;SDS011;9121;50.926;5.340;2023-07-30T04:56:41;6.85;;;1.90;;
17991;SDS011;9121;50.926;5.340;2023-07-30T04:59:08;10.27;;;2.22;;
17991;SDS011;9121;50.926;5.340;2023-07-30T05:01:35;11.38;;;2.33;;
17991;SDS011;9121;50.926;5.340;2023-07-30T05:04:03;11.43;;;2.00;;
17991;SDS011;9121;50.926;5.340;2023-07-30T05:06:30;7.95;;;2.08;;
17991;SDS011;9121;50.926;5.340;2023-07-30T05:08:58;15.68;;;2.10;;
17991;SDS011;9121;50.926;5.340;2023-07-30T05:11:25;9.38;;;2.08;;
17991;SDS011;9121;50.926;5.340;2023-07-30T05:13:52;10.55;;;2.45;;
17991;SDS011;9121;50.926;5.340;2023-07-30T05:16:19;11.93;;;2.63;;
17991;SDS011;9121;50.926;5.340;2023-07-30T05:18:46;12.73;;;2.33;;
17991;SDS011;9121;50.926;5.340;2023-07-30T05:21:15;14.25;;;2.53;;
17991;SDS011;9121;50.926;5.340;2023-07-30T05:23:42;8.77;;;2.08;;
17991;SDS011;9121;50.926;5.340;2023-07-30T05:26:09;8.63;;;2.47;;
17991;SDS011;9121;50.926;5.340;2023-07-30T05:28:35;16.80;;;2.50;;
17991;SDS011;9121;50.926;5.340;2023-07-30T05:31:02;5.40;;;1.80;;
17991;SDS011;9121;50.926;5.340;2023-07-30T05:33:29;12.65;;;2.15;;
17991;SDS011;9121;50.926;5.340;2023-07-30T05:35:56;14.55;;;3.20;;
17991;SDS011;9121;50.926;5.340;2023-07-30T05:38:25;8.27;;;2.17;;
17991;SDS011;9121;50.926;5.340;2023-07-30T05:40:52;7.13;;;2.63;;
17991;SDS011;9121;50.926;5.340;2023-07-30T05:43:19;16.25;;;2.58;;
17991;SDS011;9121;50.926;5.340;2023-07-30T05:45:46;11.07;;;2.47;;
17991;SDS011;9121;50.926;5.340;2023-07-30T05:48:13;11.88;;;2.58;;
17991;SDS011;9121;50.926;5.340;2023-07-30T05:50:40;18.42;;;3.13;;
17991;SDS011;9121;50.926;5.340;2023-07-30T05:53:06;10.35;;;2.60;;
17991;SDS011;9121;50.926;5.340;2023-07-30T05:55:35;12.05;;;2.70;;
17991;SDS011;9121;50.926;5.340;2023-07-30T05:58:02;9.15;;;2.15;;
17991;SDS011;9121;50.926;5.340;2023-07-30T06:00:29;15.43;;;2.83;;
17991;SDS011;9121;50.926;5.340;2023-07-30T06:02:55;11.10;;;2.58;;
17991;SDS011;9121;50.926;5.340;2023-07-30T06:05:23;14.02;;;2.50;;
17991;SDS011;9121;50.926;5.340;2023-07-30T06:07:49;12.40;;;2.60;;
17991;SDS011;9121;50.926;5.340;2023-07-30T06:10:16;15.80;;;3.10;;
17991;SDS011;9121;50.926;5.340;2023-07-30T06:12:45;12.30;;;2.70;;
17991;SDS011;9121;50.926;5.340;2023-07-30T06:15:12;14.02;;;2.60;;
17991;SDS011;9121;50.926;5.340;2023-07-30T06:17:38;11.95;;;2.80;;
17991;SDS011;9121;50.926;5.340;2023-07-30T06:20:06;10.57;;;2.35;;
17991;SDS011;9121;50.926;5.340;2023-07-30T06:22:34;11.65;;;3.03;;
17991;SDS011;9121;50.926;5.340;2023-07-30T06:25:02;12.27;;;2.72;;
17991;SDS011;9121;50.926;5.340;2023-07-30T06:27:29;12.10;;;2.42;;
17991;SDS011;9121;50.926;5.340;2023-07-30T06:29:58;10.85;;;2.90;;
17991;SDS011;9121;50.926;5.340;2023-07-30T06:32:25;13.95;;;3.35;;
17991;SDS011;9121;50.926;5.340;2023-07-30T06:34:53;16.50;;;2.50;;
17991;SDS011;9121;50.926;5.340;2023-07-30T06:37:19;19.40;;;3.80;;
17991;SDS011;9121;50.926;5.340;2023-07-30T06:39:46;16.77;;;2.90;;
17991;SDS011;9121;50.926;5.340;2023-07-30T06:42:13;13.90;;;2.90;;
17991;SDS011;9121;50.926;5.340;2023-07-30T06:44:40;15.50;;;3.22;;
17991;SDS011;9121;50.926;5.340;2023-07-30T06:47:09;20.27;;;3.50;;
17991;SDS011;9121;50.926;5.340;2023-07-30T06:49:36;19.15;;;2.85;;
17991;SDS011;9121;50.926;5.340;2023-07-30T06:52:03;21.00;;;3.42;;
17991;SDS011;9121;50.926;5.340;2023-07-30T06:54:30;19.35;;;3.47;;
17991;SDS011;9121;50.926;5.340;2023-07-30T06:56:57;11.35;;;2.83;;
17991;SDS011;9121;50.926;5.340;2023-07-30T06:59:24;17.45;;;3.72;;
17991;SDS011;9121;50.926;5.340;2023-07-30T07:01:51;22.65;;;3.28;;
17991;SDS011;9121;50.926;5.340;2023-07-30T07:04:20;13.50;;;3.25;;
17991;SDS011;9121;50.926;5.340;2023-07-30T07:06:47;12.63;;;3.03;;
17991;SDS011;9121;50.926;5.340;2023-07-30T07:09:14;18.30;;;3.75;;
17991;SDS011;9121;50.926;5.340;2023-07-30T07:11:41;16.55;;;3.15;;
17991;SDS011;9121;50.926;5.340;2023-07-30T07:14:08;15.77;;;3.40;;
17991;SDS011;9121;50.926;5.340;2023-07-30T07:16:35;16.60;;;2.78;;
17991;SDS011;9121;50.926;5.340;2023-07-30T07:19:02;11.48;;;2.53;;
17991;SDS011;9121;50.926;5.340;2023-07-30T07:21:30;18.98;;;3.47;;
17991;SDS011;9121;50.926;5.340;2023-07-30T07:23:57;18.35;;;3.58;;
17991;SDS011;9121;50.926;5.340;2023-07-30T07:26:24;16.05;;;3.50;;
17991;SDS011;9121;50.926;5.340;2023-07-30T07:28:51;16.10;;;3.25;;
17991;SDS011;9121;50.926;5.340;2023-07-30T07:31:18;14.55;;;2.92;;
17991;SDS011;9121;50.926;5.340;2023-07-30T07:33:45;14.65;;;3.35;;
17991;SDS011;9121;50.926;5.340;2023-07-30T07:36:12;17.67;;;3.20;;
17991;SDS011;9121;50.926;5.340;2023-07-30T07:38:42;12.57;;;3.22;;
17991;SDS011;9121;50.926;5.340;2023-07-30T07:41:13;25.27;;;3.97;;
17991;SDS011;9121;50.926;5.340;2023-07-30T07:43:41;12.20;;;3.20;;
17991;SDS011;9121;50.926;5.340;2023-07-30T07:46:09;24.73;;;4.07;;
17991;SDS011;9121;50.926;5.340;2023-07-30T07:48:38;16.75;;;3.63;;
17991;SDS011;9121;50.926;5.340;2023-07-30T07:51:06;13.10;;;3.22;;
17991;SDS011;9121;50.926;5.340;2023-07-30T07:53:33;16.75;;;2.90;;
17991;SDS011;9121;50.926;5.340;2023-07-30T07:56:02;17.25;;;3.50;;
17991;SDS011;9121;50.926;5.340;2023-07-30T07:58:29;20.73;;;3.95;;
17991;SDS011;9121;50.926;5.340;2023-07-30T08:00:57;17.98;;;3.28;;
17991;SDS011;9121;50.926;5.340;2023-07-30T08:03:25;16.77;;;3.20;;
17991;SDS011;9121;50.926;5.340;2023-07-30T08:05:52;18.05;;;3.58;;
17991;SDS011;9121;50.926;5.340;2023-07-30T08:08:19;21.85;;;3.58;;
17991;SDS011;9121;50.926;5.340;2023-07-30T08:10:46;17.05;;;3.90;;
17991;SDS011;9121;50.926;5.340;2023-07-30T08:13:15;17.65;;;3.45;;
17991;SDS011;9121;50.926;5.340;2023-07-30T08:15:42;13.75;;;3.47;;
17991;SDS011;9121;50.926;5.340;2023-07-30T08:18:08;13.48;;;3.78;;
17991;SDS011;9121;50.926;5.340;2023-07-30T08:20:36;13.50;;;3.53;;
17991;SDS011;9121;50.926;5.340;2023-07-30T08:23:03;13.30;;;3.28;;
17991;SDS011;9121;50.926;5.340;2023-07-30T08:25:30;22.10;;;4.53;;
17991;SDS011;9121;50.926;5.340;2023-07-30T08:27:56;12.63;;;3.65;;
17991;SDS011;9121;50.926;5.340;2023-07-30T08:30:25;22.23;;;4.15;;
17991;SDS011;9121;50.926;5.340;2023-07-30T08:32:52;14.27;;;4.10;;
17991;SDS011;9121;50.926;5.340;2023-07-30T08:35:19;18.50;;;4.40;;
17991;SDS011;9121;50.926;5.340;2023-07-30T08:37:46;10.73;;;3.88;;
17991;SDS011;9121;50.926;5.340;2023-07-30T08:40:13;18.35;;;4.75;;
17991;SDS011;9121;50.926;5.340;2023-07-30T08:42:40;23.40;;;4.45;;
17991;SDS011;9121;50.926;5.340;2023-07-30T08:45:08;13.55;;;4.20;;
17991;SDS011;9121;50.926;5.340;2023-07-30T08:47:37;12.43;;;4.15;;
17991;SDS011;9121;50.926;5.340;2023-07-30T08:50:05;17.00;;;5.22;;
17991;SDS011;9121;50.926;5.340;2023-07-30T08:52:33;18.08;;;4.45;;
17991;SDS011;9121;50.926;5.340;2023-07-30T08:55:02;12.88;;;4.60;;
17991;SDS011;9121;50.926;5.340;2023-07-30T08:57:29;13.82;;;4.97;;
17991;SDS011;9121;50.926;5.340;2023-07-30T08:59:59;12.90;;;4.63;;
17991;SDS011;9121;50.926;5.340;2023-07-30T09:02:30;10.73;;;4.13;;
17991;SDS011;9121;50.926;5.340;2023-07-30T09:05:02;16.52;;;4.57;;
17991;SDS011;9121;50.926;5.340;2023-07-30T09:07:30;15.40;;;3.97;;
17991;SDS011;9121;50.926;5.340;2023-07-30T09:09:57;18.33;;;3.80;;
17991;SDS011;9121;50.926;5.340;2023-07-30T09:12:28;13.27;;;3.33;;
17991;SDS011;9121;50.926;5.340;2023-07-30T09:14:56;12.00;;;2.80;;
17991;SDS011;9121;50.926;5.340;2023-07-30T09:17:23;12.25;;;2.92;;
17991;SDS011;9121;50.926;5.340;2023-07-30T09:19:51;15.60;;;2.90;;
17991;SDS011;9121;50.926;5.340;2023-07-30T09:22:25;12.27;;;2.60;;
17991;SDS011;9121;50.926;5.340;2023-07-30T09:24:53;12.18;;;2.40;;
17991;SDS011;9121;50.926;5.340;2023-07-30T09:27:20;11.40;;;2.55;;
17991;SDS011;9121;50.926;5.340;2023-07-30T09:29:51;13.93;;;2.53;;
17991;SDS011;9121;50.926;5.340;2023-07-30T09:32:20;13.52;;;2.60;;
17991;SDS011;9121;50.926;5.340;2023-07-30T09:34:51;10.75;;;2.70;;
17991;SDS011;9121;50.926;5.340;2023-07-30T09:37:18;9.38;;;2.28;;
17991;SDS011;9121;50.926;5.340;2023-07-30T09:39:48;10.20;;;2.42;;
17991;SDS011;9121;50.926;5.340;2023-07-30T09:42:15;11.30;;;2.63;;
17991;SDS011;9121;50.926;5.340;2023-07-30T09:44:43;13.93;;;2.55;;
17991;SDS011;9121;50.926;5.340;2023-07-30T09:47:13;12.55;;;2.70;;
17991;SDS011;9121;50.926;5.340;2023-07-30T09:49:40;11.32;;;2.28;;
17991;SDS011;9121;50.926;5.340;2023-07-30T09:52:07;9.43;;;2.15;;
17991;SDS011;9121;50.926;5.340;2023-07-30T09:54:34;11.85;;;2.35;;
17991;SDS011;9121;50.926;5.340;2023-07-30T09:57:06;9.52;;;2.53;;
17991;SDS011;9121;50.926;5.340;2023-07-30T09:59:33;11.63;;;2.38;;
17991;SDS011;9121;50.926;5.340;2023-07-30T10:02:00;12.73;;;2.17;;
17991;SDS011;9121;50.926;5.340;2023-07-30T10:04:27;15.48;;;2.92;;
17991;SDS011;9121;50.926;5.340;2023-07-30T10:06:58;11.52;;;2.55;;
17991;SDS011;9121;50.926;5.340;2023-07-30T10:09:30;12.43;;;3.13;;
17991;SDS011;9121;50.926;5.340;2023-07-30T10:12:00;10.65;;;2.33;;
17991;SDS011;9121;50.926;5.340;2023-07-30T10:14:31;7.97;;;2.13;;
17991;SDS011;9121;50.926;5.340;2023-07-30T10:16:59;13.73;;;2.67;;
17991;SDS011;9121;50.926;5.340;2023-07-30T10:19:27;12.38;;;2.17;;
17991;SDS011;9121;50.926;5.340;2023-07-30T10:21:57;6.82;;;1.73;;
17991;SDS011;9121;50.926;5.340;2023-07-30T10:24:25;6.47;;;1.60;;
17991;SDS011;9121;50.926;5.340;2023-07-30T10:26:53;6.97;;;1.40;;
17991;SDS011;9121;50.926;5.340;2023-07-30T10:29:23;5.68;;;1.70;;
17991;SDS011;9121;50.926;5.340;2023-07-30T10:31:53;5.72;;;1.50;;
17991;SDS011;9121;50.926;5.340;2023-07-30T10:34:22;5.20;;;1.50;;
17991;SDS011;9121;50.926;5.340;2023-07-30T10:36:54;7.28;;;1.58;;
17991;SDS011;9121;50.926;5.340;2023-07-30T10:39:26;11.10;;;2.20;;
17991;SDS011;9121;50.926;5.340;2023-07-30T10:41:55;6.32;;;2.15;;
17991;SDS011;9121;50.926;5.340;2023-07-30T10:44:24;4.95;;;1.95;;
17991;SDS011;9121;50.926;5.340;2023-07-30T10:46:54;4.70;;;2.13;;
17991;SDS011;9121;50.926;5.340;2023-07-30T10:49:21;8.77;;;2.00;;
17991;SDS011;9121;50.926;5.340;2023-07-30T10:51:49;8.23;;;1.92;;
17991;SDS011;9121;50.926;5.340;2023-07-30T10:54:17;6.40;;;1.90;;
17991;SDS011;9121;50.926;5.340;2023-07-30T10:56:44;6.57;;;2.17;;
17991;SDS011;9121;50.926;5.340;2023-07-30T10:59:12;9.20;;;2.38;;
17991;SDS011;9121;50.926;5.340;2023-07-30T11:01:40;8.68;;;2.20;;
17991;SDS011;9121;50.926;5.340;2023-07-30T11:04:10;7.38;;;2.15;;
17991;SDS011;9121;50.926;5.340;2023-07-30T11:06:38;6.80;;;2.20;;
17991;SDS011;9121;50.926;5.340;2023-07-30T11:09:05;11.35;;;2.85;;
17991;SDS011;9121;50.926;5.340;2023-07-30T11:11:45;13.25;;;2.58;;
17991;SDS011;9121;50.926;5.340;2023-07-30T11:14:14;10.15;;;2.60;;
17991;SDS011;9121;50.926;5.340;2023-07-30T11:16:46;8.75;;;2.70;;
17991;SDS011;9121;50.926;5.340;2023-07-30T11:19:16;9.20;;;2.83;;
17991;SDS011;9121;50.926;5.340;2023-07-30T11:21:46;10.52;;;2.95;;
17991;SDS011;9121;50.926;5.340;2023-07-30T11:24:13;9.40;;;2.20;;
17991;SDS011;9121;50.926;5.340;2023-07-30T11:26:40;8.45;;;2.78;;
17991;SDS011;9121;50.926;5.340;2023-07-30T11:29:14;7.97;;;2.55;;
17991;SDS011;9121;50.926;5.340;2023-07-30T11:31:42;9.40;;;2.80;;
17991;SDS011;9121;50.926;5.340;2023-07-30T11:34:09;11.80;;;2.55;;
17991;SDS011;9121;50.926;5.340;2023-07-30T11:36:38;8.68;;;2.67;;
17991;SDS011;9121;50.926;5.340;2023-07-30T11:39:06;10.02;;;2.70;;
17991;SDS011;9121;50.926;5.340;2023-07-30T11:41:34;8.43;;;2.85;;
17991;SDS011;9121;50.926;5.340;2023-07-30T11:44:01;10.55;;;2.88;;
17991;SDS011;9121;50.926;5.340;2023-07-30T11:46:29;8.98;;;2.30;;
17991;SDS011;9121;50.926;5.340;2023-07-30T11:49:10;6.88;;;2.40;;
17991;SDS011;9121;50.926;5.340;2023-07-30T11:51:40;11.32;;;2.17;;
17991;SDS011;9121;50.926;5.340;2023-07-30T11:54:07;8.85;;;1.88;;
17991;SDS011;9121;50.926;5.340;2023-07-30T11:56:44;9.32;;;1.73;;
17991;SDS011;9121;50.926;5.340;2023-07-30T11:59:11;9.77;;;2.30;;
17991;SDS011;9121;50.926;5.340;2023-07-30T12:01:38;9.63;;;2.17;;
17991;SDS011;9121;50.926;5.340;2023-07-30T12:04:08;8.80;;;2.08;;
17991;SDS011;9121;50.926;5.340;2023-07-30T12:06:40;11.02;;;2.08;;
17991;SDS011;9121;50.926;5.340;2023-07-30T12:09:11;8.93;;;1.77;;
17991;SDS011;9121;50.926;5.340;2023-07-30T12:11:49;9.25;;;1.73;;
17991;SDS011;9121;50.926;5.340;2023-07-30T12:14:17;5.75;;;1.90;;
17991;SDS011;9121;50.926;5.340;2023-07-30T12:16:45;11.20;;;2.65;;
17991;SDS011;9121;50.926;5.340;2023-07-30T12:19:12;10.15;;;2.15;;
17991;SDS011;9121;50.926;5.340;2023-07-30T12:21:40;10.57;;;2.65;;
17991;SDS011;9121;50.926;5.340;2023-07-30T12:24:07;10.05;;;2.20;;
17991;SDS011;9121;50.926;5.340;2023-07-30T12:26:34;12.82;;;2.28;;
17991;SDS011;9121;50.926;5.340;2023-07-30T12:29:01;10.77;;;2.67;;
17991;SDS011;9121;50.926;5.340;2023-07-30T12:31:28;11.48;;;2.20;;
17991;SDS011;9121;50.926;5.340;2023-07-30T12:33:55;11.07;;;2.03;;
17991;SDS011;9121;50.926;5.340;2023-07-30T12:36:22;6.22;;;1.75;;
17991;SDS011;9121;50.926;5.340;2023-07-30T12:38:51;12.25;;;1.88;;
17991;SDS011;9121;50.926;5.340;2023-07-30T12:41:19;8.75;;;2.03;;
17991;SDS011;9121;50.926;5.340;2023-07-30T12:43:50;11.23;;;1.80;;
17991;SDS011;9121;50.926;5.340;2023-07-30T12:46:18;11.57;;;2.20;;
17991;SDS011;9121;50.926;5.340;2023-07-30T12:48:45;10.25;;;2.10;;
17991;SDS011;9121;50.926;5.340;2023-07-30T12:51:12;9.23;;;2.30;;
17991;SDS011;9121;50.926;5.340;2023-07-30T12:53:39;8.10;;;1.95;;
17991;SDS011;9121;50.926;5.340;2023-07-30T12:56:07;12.85;;;1.95;;
17991;SDS011;9121;50.926;5.340;2023-07-30T12:58:34;7.03;;;1.90;;
17991;SDS011;9121;50.926;5.340;2023-07-30T13:01:02;11.07;;;2.08;;
17991;SDS011;9121;50.926;5.340;2023-07-30T13:03:29;8.50;;;2.10;;
17991;SDS011;9121;50.926;5.340;2023-07-30T13:05:56;6.78;;;1.65;;
17991;SDS011;9121;50.926;5.340;2023-07-30T13:08:23;5.93;;;1.70;;
17991;SDS011;9121;50.926;5.340;2023-07-30T13:10:50;11.05;;;2.28;;
17991;SDS011;9121;50.926;5.340;2023-07-30T13:13:18;7.15;;;1.90;;
17991;SDS011;9121;50.926;5.340;2023-07-30T13:15:45;7.70;;;2.47;;
17991;SDS011;9121;50.926;5.340;2023-07-30T13:18:12;7.57;;;1.90;;
17991;SDS011;9121;50.926;5.340;2023-07-30T13:20:39;6.88;;;1.60;;
17991;SDS011;9121;50.926;5.340;2023-07-30T13:23:06;9.40;;;1.83;;
17991;SDS011;9121;50.926;5.340;2023-07-30T13:25:33;5.35;;;2.10;;
17991;SDS011;9121;50.926;5.340;2023-07-30T13:28:00;7.45;;;1.98;;
17991;SDS011;9121;50.926;5.340;2023-07-30T13:30:28;8.75;;;2.20;;
17991;SDS011;9121;50.926;5.340;2023-07-30T13:32:55;6.47;;;2.22;;
17991;SDS011;9121;50.926;5.340;2023-07-30T13:35:22;6.30;;;1.90;;
17991;SDS011;9121;50.926;5.340;2023-07-30T13:37:49;8.07;;;2.05;;
17991;SDS011;9121;50.926;5.340;2023-07-30T13:40:16;6.85;;;2.08;;
17991;SDS011;9121;50.926;5.340;2023-07-30T13:42:43;9.45;;;2.17;;
17991;SDS011;9121;50.926;5.340;2023-07-30T13:45:10;8.50;;;2.20;;
17991;SDS011;9121;50.926;5.340;2023-07-30T13:47:38;5.25;;;1.80;;
17991;SDS011;9121;50.926;5.340;2023-07-30T13:50:07;8.32;;;1.92;;
17991;SDS011;9121;50.926;5.340;2023-07-30T13:52:34;8.30;;;2.00;;
17991;SDS011;9121;50.926;5.340;2023-07-30T13:55:01;6.75;;;2.22;;
17991;SDS011;9121;50.926;5.340;2023-07-30T13:57:28;8.10;;;2.28;;
17991;SDS011;9121;50.926;5.340;2023-07-30T13:59:55;5.32;;;1.90;;
17991;SDS011;9121;50.926;5.340;2023-07-30T14:02:21;9.07;;;1.92;;
17991;SDS011;9121;50.926;5.340;2023-07-30T14:04:50;8.93;;;2.25;;
17991;SDS011;9121;50.926;5.340;2023-07-30T14:07:17;6.20;;;1.90;;
17991;SDS011;9121;50.926;5.340;2023-07-30T14:09:44;5.72;;;1.52;;
17991;SDS011;9121;50.926;5.340;2023-07-30T14:12:11;5.05;;;1.73;;
17991;SDS011;9121;50.926;5.340;2023-07-30T14:14:38;5.25;;;1.95;;
17991;SDS011;9121;50.926;5.340;2023-07-30T14:17:04;5.40;;;1.50;;
17991;SDS011;9121;50.926;5.340;2023-07-30T14:19:32;5.72;;;2.28;;
17991;SDS011;9121;50.926;5.340;2023-07-30T14:22:00;5.15;;;1.70;;
17991;SDS011;9121;50.926;5.340;2023-07-30T14:24:27;4.38;;;1.67;;
17991;SDS011;9121;50.926;5.340;2023-07-30T14:26:54;6.45;;;1.58;;
17991;SDS011;9121;50.926;5.340;2023-07-30T14:29:21;5.53;;;1.85;;
17991;SDS011;9121;50.926;5.340;2023-07-30T14:31:49;8.25;;;1.85;;
17991;SDS011;9121;50.926;5.340;2023-07-30T14:34:16;3.80;;;1.52;;
17991;SDS011;9121;50.926;5.340;2023-07-30T14:36:43;9.50;;;1.73;;
17991;SDS011;9121;50.926;5.340;2023-07-30T14:39:11;5.07;;;1.83;;
17991;SDS011;9121;50.926;5.340;2023-07-30T14:41:38;7.47;;;1.83;;
17991;SDS011;9121;50.926;5.340;2023-07-30T14:44:05;5.93;;;1.85;;
17991;SDS011;9121;50.926;5.340;2023-07-30T14:46:32;5.68;;;1.90;;
17991;SDS011;9121;50.926;5.340;2023-07-30T14:48:59;5.00;;;1.58;;
17991;SDS011;9121;50.926;5.340;2023-07-30T14:51:27;5.35;;;1.92;;
17991;SDS011;9121;50.926;5.340;2023-07-30T14:53:54;7.40;;;1.90;;
17991;SDS011;9121;50.926;5.340;2023-07-30T14:56:22;9.15;;;2.20;;